createdAt,value
2018-07-10T00:18:03.581Z,2.47
2018-07-10T00:20:43.264Z,2.70
2018-07-10T00:23:29.510Z,2.40
2018-07-10T00:26:06.558Z,3.13
2018-07-10T00:28:37.365Z,3.10
2018-07-10T00:31:09.549Z,2.87
2018-07-10T00:33:48.357Z,3.90
2018-07-10T00:43:54.330Z,3.00
2018-07-10T00:46:26.223Z,3.10
2018-07-10T00:49:05.299Z,3.20
2018-07-10T00:51:42.113Z,3.00
2018-07-10T00:54:20.017Z,3.47
2018-07-10T00:56:52.373Z,4.10
2018-07-10T00:59:30.452Z,3.70
2018-07-10T01:02:03.841Z,3.40
2018-07-10T01:04:37.341Z,2.90
2018-07-10T01:07:19.669Z,3.07
2018-07-10T01:09:50.976Z,2.47
2018-07-10T01:12:29.876Z,2.67
2018-07-10T01:15:00.124Z,3.60
2018-07-10T01:17:49.859Z,2.80
2018-07-10T01:23:13.037Z,2.90
2018-07-10T01:25:45.130Z,3.57
2018-07-10T01:28:27.458Z,2.97
2018-07-10T01:31:01.409Z,3.70
2018-07-10T01:33:33.083Z,2.90
2018-07-10T01:36:06.461Z,2.73
2018-07-10T01:38:43.810Z,3.30
2018-07-10T01:41:21.008Z,3.00
2018-07-10T01:44:04.444Z,3.30
2018-07-10T01:46:42.638Z,3.30
2018-07-10T01:49:15.396Z,3.23
2018-07-10T02:02:42.295Z,3.00
2018-07-10T02:05:19.594Z,3.10
2018-07-10T02:07:52.569Z,3.30
2018-07-10T02:18:07.091Z,3.23
2018-07-10T02:20:56.540Z,2.70
2018-07-10T02:23:27.869Z,2.90
2018-07-10T02:26:00.909Z,3.20
2018-07-10T02:28:31.208Z,3.50
2018-07-10T02:31:05.527Z,2.80
2018-07-10T02:33:39.289Z,3.03
2018-07-10T02:36:08.437Z,3.10
2018-07-10T02:39:09.294Z,2.93
2018-07-10T02:41:43.512Z,3.73
2018-07-10T02:44:14.703Z,3.40
2018-07-10T02:46:53.008Z,2.73
2018-07-10T02:49:22.459Z,3.00
2018-07-10T02:51:57.192Z,2.10
2018-07-10T02:54:26.868Z,2.83
2018-07-10T02:56:56.564Z,2.90
2018-07-10T02:59:32.626Z,3.10
2018-07-10T03:02:01.013Z,3.20
2018-07-10T03:04:29.981Z,3.73
2018-07-10T03:06:58.053Z,2.77
2018-07-10T03:09:25.905Z,3.83
2018-07-10T03:11:53.895Z,3.93
2018-07-10T03:14:22.069Z,3.20
2018-07-10T03:16:50.017Z,4.00
2018-07-10T03:19:18.452Z,3.60
2018-07-10T03:21:46.239Z,3.40
2018-07-10T03:24:14.378Z,3.23
2018-07-10T03:26:42.837Z,2.80
2018-07-10T03:29:10.795Z,3.03
2018-07-10T03:31:38.556Z,2.83
2018-07-10T03:34:06.514Z,3.13
2018-07-10T03:36:34.567Z,3.83
2018-07-10T03:39:05.263Z,4.10
2018-07-10T03:41:33.313Z,2.60
2018-07-10T03:44:01.272Z,5.23
2018-07-10T03:46:29.549Z,3.00
2018-07-10T03:48:57.544Z,3.53
2018-07-10T03:51:25.390Z,2.87
2018-07-10T03:53:53.615Z,4.20
2018-07-10T03:56:21.693Z,3.37
2018-07-10T03:58:51.250Z,3.20
2018-07-10T04:01:19.364Z,3.33
2018-07-10T04:03:47.387Z,3.80
2018-07-10T04:06:15.277Z,3.87
2018-07-10T04:08:43.107Z,2.87
2018-07-10T04:11:11.124Z,3.70
2018-07-10T04:13:40.539Z,3.47
2018-07-10T04:16:08.402Z,4.00
2018-07-10T04:18:36.407Z,3.90
2018-07-10T04:21:12.566Z,3.90
2018-07-10T04:23:40.864Z,3.27
2018-07-10T04:26:10.297Z,3.47
2018-07-10T04:28:38.351Z,3.87
2018-07-10T04:31:15.809Z,3.50
2018-07-10T04:33:47.227Z,3.40
2018-07-10T04:36:15.764Z,4.03
2018-07-10T04:38:44.737Z,3.43
2018-07-10T04:41:17.067Z,5.27
2018-07-10T04:43:57.906Z,4.43
2018-07-10T04:46:27.791Z,4.20
2018-07-10T04:48:59.862Z,3.40
2018-07-10T04:51:30.922Z,3.90
2018-07-10T04:54:33.714Z,4.83
2018-07-10T04:57:03.470Z,3.00
2018-07-10T04:59:31.875Z,4.00
2018-07-10T05:02:00.470Z,3.20
2018-07-10T05:04:29.965Z,4.40
2018-07-10T05:07:01.269Z,4.40
2018-07-10T05:09:29.057Z,3.87
2018-07-10T05:11:57.004Z,4.07
2018-07-10T05:14:24.908Z,4.30
2018-07-10T05:16:52.920Z,3.30
2018-07-10T05:19:20.656Z,3.87
2018-07-10T05:21:48.448Z,3.63
2018-07-10T05:24:16.408Z,3.60
2018-07-10T05:26:44.568Z,3.60
2018-07-10T05:29:12.725Z,3.73
2018-07-10T05:31:41.189Z,3.67
2018-07-10T05:34:09.095Z,3.40
2018-07-10T05:36:37.129Z,3.33
2018-07-10T05:39:06.876Z,3.60
2018-07-10T05:41:38.381Z,3.60
2018-07-10T05:44:06.139Z,4.73
2018-07-10T05:46:34.076Z,4.53
2018-07-10T05:49:03.587Z,3.57
2018-07-10T05:51:36.345Z,3.80
2018-07-10T05:54:05.781Z,3.03
2018-07-10T05:56:33.712Z,4.07
2018-07-10T05:59:03.051Z,3.40
2018-07-10T06:01:31.438Z,3.27
2018-07-10T06:03:59.355Z,2.83
2018-07-10T06:06:27.486Z,3.50
2018-07-10T06:08:55.967Z,3.70
2018-07-10T06:11:24.097Z,3.03
2018-07-10T06:13:51.884Z,5.20
2018-07-10T06:16:20.613Z,3.20
2018-07-10T06:21:40.517Z,3.10
2018-07-10T06:24:14.610Z,3.00
2018-07-10T06:26:43.443Z,2.77
2018-07-10T06:29:20.460Z,2.67
2018-07-10T06:31:50.059Z,2.80
2018-07-10T06:34:18.249Z,2.53
2018-07-10T06:36:50.533Z,3.27
2018-07-10T06:39:18.382Z,3.47
2018-07-10T06:41:53.364Z,2.77
2018-07-10T06:44:21.057Z,3.30
2018-07-10T06:46:53.662Z,3.27
2018-07-10T06:49:31.793Z,3.00
2018-07-10T06:52:05.229Z,2.77
2018-07-10T06:55:09.890Z,2.90
2018-07-10T06:57:39.773Z,2.80
2018-07-10T07:00:09.176Z,2.97
2018-07-10T07:02:37.355Z,3.23
2018-07-10T07:05:05.109Z,3.90
2018-07-10T07:07:34.530Z,3.97
2018-07-10T07:10:02.271Z,3.40
2018-07-10T07:12:30.013Z,2.90
2018-07-10T07:14:58.215Z,2.73
2018-07-10T07:17:26.687Z,3.37
2018-07-10T07:19:54.526Z,2.53
2018-07-10T07:22:22.466Z,2.20
2018-07-10T07:24:50.181Z,3.60
2018-07-10T07:27:18.095Z,1.70
2018-07-10T07:29:46.214Z,2.30
2018-07-10T07:32:14.317Z,2.50
2018-07-10T07:34:42.359Z,2.33
2018-07-10T07:37:10.478Z,2.50
2018-07-10T07:39:38.321Z,2.93
2018-07-10T07:42:06.622Z,2.70
2018-07-10T07:44:34.388Z,2.13
2018-07-10T07:47:02.177Z,2.70
2018-07-10T07:49:30.819Z,2.13
2018-07-10T07:51:59.624Z,2.07
2018-07-10T07:56:55.394Z,2.43
2018-07-10T07:59:23.148Z,2.50
2018-07-10T08:01:51.642Z,2.10
2018-07-10T09:00:52.014Z,2.00
2018-07-10T09:03:20.294Z,1.83
2018-07-10T09:05:48.065Z,1.90
2018-07-10T09:08:15.824Z,1.93
2018-07-10T09:10:43.875Z,2.13
2018-07-10T09:13:12.599Z,1.83
2018-07-10T09:20:40.964Z,1.20
2018-07-10T09:23:09.206Z,1.30
2018-07-10T09:25:37.017Z,1.87
2018-07-10T09:28:04.701Z,1.40
2018-07-10T09:30:32.673Z,1.70
2018-07-10T09:33:00.424Z,1.50
2018-07-10T09:35:28.255Z,1.40
2018-07-10T09:37:56.085Z,1.47
2018-07-10T09:40:24.458Z,2.27
2018-07-10T09:50:27.184Z,1.40
2018-07-10T10:29:44.896Z,2.70
2018-07-10T10:32:13.909Z,2.63
2018-07-10T10:34:41.814Z,2.53
2018-07-10T10:37:09.806Z,2.10
2018-07-10T10:39:39.578Z,2.70
2018-07-10T10:42:07.912Z,2.53
2018-07-10T10:44:35.963Z,2.20
2018-07-10T10:47:03.915Z,2.73
2018-07-10T10:49:32.283Z,2.73
2018-07-10T10:52:00.136Z,2.30
2018-07-10T10:54:28.162Z,2.90
2018-07-10T10:56:57.119Z,1.60
2018-07-10T11:19:18.134Z,2.37
2018-07-10T11:21:52.834Z,2.10
2018-07-10T11:24:20.878Z,2.20
2018-07-10T11:26:49.214Z,2.67
2018-07-10T11:29:17.974Z,2.33
2018-07-10T11:31:57.157Z,3.03
2018-07-10T11:46:49.172Z,1.80
2018-07-10T11:49:16.888Z,2.10
2018-07-10T11:51:45.834Z,1.97
2018-07-10T11:59:07.965Z,1.90
2018-07-10T12:01:36.224Z,2.10
2018-07-10T12:04:04.368Z,1.93
2018-07-10T13:13:06.908Z,2.40
2018-07-10T13:15:36.140Z,2.87
2018-07-10T13:18:05.096Z,2.53
2018-07-10T13:20:35.894Z,2.43
2018-07-10T13:23:04.606Z,1.80
2018-07-10T13:25:32.319Z,2.77
2018-07-10T13:28:00.861Z,3.00
2018-07-10T13:30:29.091Z,1.80
2018-07-10T13:32:56.996Z,2.30
2018-07-10T13:35:25.306Z,2.23
2018-07-10T13:37:54.205Z,2.63
2018-07-10T13:40:22.722Z,2.53
2018-07-10T13:42:56.141Z,2.60
2018-07-10T13:45:25.221Z,2.83
2018-07-10T13:47:52.895Z,2.70
2018-07-10T13:50:23.165Z,3.03
2018-07-10T13:52:51.288Z,2.27
2018-07-10T13:55:24.251Z,2.10
2018-07-10T13:58:02.801Z,2.10
2018-07-10T14:00:31.598Z,2.10
2018-07-10T14:03:00.235Z,2.00
2018-07-10T14:05:29.685Z,2.10
2018-07-10T14:08:00.258Z,2.10
2018-07-10T14:10:28.594Z,1.97
2018-07-10T14:13:05.671Z,2.20
2018-07-10T14:15:35.796Z,2.37
2018-07-10T14:18:03.803Z,1.67
2018-07-10T14:20:36.851Z,1.30
2018-07-10T14:23:06.632Z,1.67
2018-07-10T14:25:34.457Z,1.80
2018-07-10T14:28:02.587Z,1.73
2018-07-10T14:30:30.597Z,1.73
2018-07-10T14:32:58.508Z,1.70
2018-07-10T14:35:29.547Z,1.50
2018-07-10T14:38:00.850Z,1.77
2018-07-10T14:40:30.611Z,1.93
2018-07-10T14:43:03.216Z,1.47
2018-07-10T14:45:31.621Z,1.40
2018-07-10T14:48:01.222Z,1.67
2018-07-10T14:50:29.163Z,2.00
2018-07-10T14:52:58.040Z,1.83
2018-07-10T15:05:17.528Z,1.93
2018-07-10T15:07:49.156Z,2.30
2018-07-10T15:10:17.135Z,2.20
2018-07-10T15:12:48.361Z,1.70
2018-07-10T15:15:16.407Z,1.60
2018-07-10T15:17:49.680Z,1.90
2018-07-10T15:20:21.640Z,1.87
2018-07-10T15:22:49.513Z,1.70
2018-07-10T15:25:17.371Z,1.80
2018-07-10T15:27:45.093Z,2.17
2018-07-10T15:35:06.995Z,2.20
2018-07-10T15:57:38.655Z,2.20
2018-07-10T16:00:11.147Z,2.40
2018-07-10T17:45:04.868Z,2.80
2018-07-10T17:47:33.516Z,2.40
2018-07-10T17:50:02.682Z,2.47
2018-07-10T17:52:32.055Z,2.40
2018-07-10T17:54:59.998Z,2.20
2018-07-10T17:57:30.212Z,1.90
2018-07-10T17:59:59.695Z,2.43
2018-07-10T18:02:28.512Z,4.50
2018-07-10T18:05:02.747Z,2.03
2018-07-10T18:07:31.991Z,1.87
2018-07-10T18:09:59.736Z,2.20
2018-07-10T18:12:27.945Z,2.00
2018-07-10T18:14:55.751Z,2.40
2018-07-10T18:17:23.564Z,2.20
2018-07-10T18:19:51.683Z,2.10
2018-07-10T18:22:20.036Z,2.10
2018-07-10T18:24:50.627Z,2.77
2018-07-10T18:27:18.355Z,2.40
2018-07-10T18:29:46.441Z,2.20
2018-07-10T18:32:14.247Z,2.13
2018-07-10T18:34:42.170Z,1.90
2018-07-10T18:37:09.941Z,2.20
2018-07-10T18:39:37.538Z,2.40
2018-07-10T18:42:09.536Z,2.77
2018-07-10T18:44:37.472Z,3.00
2018-07-10T18:47:06.339Z,3.10
2018-07-10T18:49:34.826Z,4.40
2018-07-10T18:52:05.910Z,3.80
2018-07-10T18:54:37.839Z,3.17
2018-07-10T18:57:30.170Z,3.20
2018-07-10T19:00:06.917Z,3.77
2018-07-10T19:02:49.820Z,3.90
2018-07-10T19:05:20.739Z,4.30
2018-07-10T19:07:55.181Z,4.17
2018-07-10T19:10:25.542Z,3.80
2018-07-10T19:13:23.173Z,4.43
2018-07-10T19:22:19.259Z,4.20
2018-07-10T19:27:56.264Z,4.53
2018-07-10T19:44:40.392Z,4.60
2018-07-10T19:47:41.575Z,5.00
2018-07-10T21:17:28.058Z,10.37
2018-07-10T22:16:11.978Z,13.70
2018-07-10T22:29:43.633Z,13.33
2018-07-10T23:43:46.963Z,14.60
2018-07-10T23:49:24.277Z,15.97
